Time,TemperatureF,DewpointF,PressureIn,WindDirection,WindDirectionDegrees,WindSpeedMPH,WindSpeedGustMPH,Humidity,HourlyPrecipIn,Conditions,Clouds,dailyrainin,SoftwareType,DateUTC
2013-06-17 00:02:00,58.0,56.3,29.71,WNW,302,0.0,0.0,94,0.00,,,0.00,Wunderground v.1.15,2013-06-17 04:02:00,
2013-06-17 00:07:00,57.9,56.2,29.71,WNW,302,0.0,0.0,94,0.00,,,0.00,Wunderground v.1.15,2013-06-17 04:07:00,
2013-06-17 00:10:00,57.9,56.2,29.71,WNW,302,0.0,0.0,94,0.00,,,0.00,Wunderground v.1.15,2013-06-17 04:10:00,
2013-06-17 00:13:00,57.9,56.5,29.71,WNW,302,0.0,0.0,95,0.00,,,0.00,Wunderground v.1.15,2013-06-17 04:13:00,
2013-06-17 00:18:00,57.8,56.1,29.71,WNW,302,0.0,0.0,94,0.00,,,0.00,Wunderground v.1.15,2013-06-17 04:18:00,
2013-06-17 00:24:00,57.6,55.9,29.71,WNW,302,0.0,0.0,94,0.00,,,0.00,Wunderground v.1.15,2013-06-17 04:24:00,
2013-06-17 00:30:00,57.5,55.8,29.71,WNW,302,0.0,0.0,94,0.00,,,0.00,Wunderground v.1.15,2013-06-17 04:30:00,
2013-06-17 00:36:00,57.3,55.6,29.71,WNW,302,0.0,0.0,94,0.00,,,0.00,Wunderground v.1.15,2013-06-17 04:36:00,
2013-06-17 00:41:00,57.3,55.9,29.71,WNW,302,0.0,0.0,95,0.00,,,0.00,Wunderground v.1.15,2013-06-17 04:41:00,
2013-06-17 00:47:00,57.5,56.4,29.71,WNW,302,0.0,0.0,96,0.00,,,0.00,Wunderground v.1.15,2013-06-17 04:47:00,
2013-06-17 00:53:00,58.0,56.6,29.72,West,278,0.0,0.0,95,0.00,,,0.00,Wunderground v.1.15,2013-06-17 04:53:00,
2013-06-17 00:59:00,58.3,56.9,29.72,SW,215,0.0,1.0,95,0.00,,,0.00,Wunderground v.1.15,2013-06-17 04:59:00,
2013-06-17 01:05:00,58.7,57.0,29.72,West,259,0.0,1.0,94,0.00,,,0.00,Wunderground v.1.15,2013-06-17 05:05:00,
2013-06-17 01:10:00,59.1,57.4,29.72,West,276,0.0,0.0,94,0.00,,,0.00,Wunderground v.1.15,2013-06-17 05:10:00,
2013-06-17 01:15:00,59.3,57.3,29.72,WSW,242,0.0,1.0,93,0.00,,,0.00,Wunderground v.1.15,2013-06-17 05:15:00,
2013-06-17 01:20:00,59.4,57.4,29.72,SW,229,0.0,0.0,93,0.00,,,0.00,Wunderground v.1.15,2013-06-17 05:20:00,
2013-06-17 01:25:00,59.4,57.4,29.72,SW,226,0.0,1.0,93,0.00,,,0.00,Wunderground v.1.15,2013-06-17 05:25:00,
2013-06-17 01:30:00,59.4,57.4,29.73,SW,234,0.0,0.0,93,0.00,,,0.00,Wunderground v.1.15,2013-06-17 05:30:00,
2013-06-17 01:36:00,59.4,57.4,29.72,WSW,250,0.0,0.0,93,0.00,,,0.00,Wunderground v.1.15,2013-06-17 05:36:00,
2013-06-17 01:41:00,59.4,57.4,29.72,WSW,256,0.0,0.0,93,0.00,,,0.00,Wunderground v.1.15,2013-06-17 05:41:00,
2013-06-17 01:47:00,59.4,57.4,29.72,SW,235,0.0,1.0,93,0.00,,,0.00,Wunderground v.1.15,2013-06-17 05:47:00,
2013-06-17 01:52:00,59.6,57.6,29.72,WSW,246,0.0,0.0,93,0.00,,,0.00,Wunderground v.1.15,2013-06-17 05:52:00,
2013-06-17 01:58:00,59.7,57.7,29.73,SW,231,0.0,2.0,93,0.00,,,0.00,Wunderground v.1.15,2013-06-17 05:58:00,
2013-06-17 02:04:00,59.7,57.4,29.72,SW,222,0.0,1.0,92,0.00,,,0.00,Wunderground v.1.15,2013-06-17 06:04:00,
2013-06-17 02:09:00,59.5,57.5,29.72,WSW,238,0.0,1.0,93,0.00,,,0.00,Wunderground v.1.15,2013-06-17 06:09:00,
2013-06-17 02:15:00,59.3,57.3,29.73,SSW,211,0.0,0.0,93,0.00,,,0.00,Wunderground v.1.15,2013-06-17 06:15:00,
2013-06-17 02:20:00,59.1,57.1,29.73,SSW,211,0.0,0.0,93,0.00,,,0.00,Wunderground v.1.15,2013-06-17 06:20:00,
2013-06-17 02:26:00,58.9,56.9,29.73,SW,214,0.0,0.0,93,0.00,,,0.00,Wunderground v.1.15,2013-06-17 06:26:00,
2013-06-17 02:32:00,58.7,57.0,29.73,SW,217,0.0,3.0,94,0.00,,,0.00,Wunderground v.1.15,2013-06-17 06:32:00,
2013-06-17 02:38:00,58.8,57.1,29.73,WSW,240,0.0,3.0,94,0.00,,,0.00,Wunderground v.1.15,2013-06-17 06:38:00,
2013-06-17 02:44:00,58.8,57.1,29.72,WSW,238,0.0,2.0,94,0.00,,,0.00,Wunderground v.1.15,2013-06-17 06:44:00,
2013-06-17 02:49:00,58.7,57.0,29.73,SW,219,0.0,2.0,94,0.00,,,0.00,Wunderground v.1.15,2013-06-17 06:49:00,
2013-06-17 02:55:00,58.4,56.7,29.72,SW,219,0.0,0.0,94,0.00,,,0.00,Wunderground v.1.15,2013-06-17 06:55:00,
2013-06-17 03:00:00,58.2,56.5,29.72,SW,226,0.0,0.0,94,0.00,,,0.00,Wunderground v.1.15,2013-06-17 07:00:00,
2013-06-17 03:06:00,58.2,56.8,29.73,SW,222,0.0,1.0,95,0.00,,,0.00,Wunderground v.1.15,2013-06-17 07:06:00,
2013-06-17 03:11:00,58.3,56.9,29.73,SW,235,1.0,2.0,95,0.00,,,0.00,Wunderground v.1.15,2013-06-17 07:11:00,
2013-06-17 03:16:00,58.4,57.0,29.73,SW,233,1.0,2.0,95,0.00,,,0.00,Wunderground v.1.15,2013-06-17 07:16:00,
2013-06-17 03:21:00,58.4,56.7,29.73,WSW,249,1.0,2.0,94,0.00,,,0.00,Wunderground v.1.15,2013-06-17 07:21:00,
2013-06-17 03:26:00,58.4,56.7,29.73,WSW,248,1.0,3.0,94,0.00,,,0.00,Wunderground v.1.15,2013-06-17 07:26:00,
2013-06-17 03:31:00,58.4,56.7,29.73,SW,224,1.0,1.0,94,0.00,,,0.00,Wunderground v.1.15,2013-06-17 07:31:00,
2013-06-17 03:37:00,58.3,56.6,29.73,West,262,0.0,1.0,94,0.00,,,0.00,Wunderground v.1.15,2013-06-17 07:37:00,
2013-06-17 03:42:00,58.2,56.5,29.73,SW,221,0.0,0.0,94,0.00,,,0.00,Wunderground v.1.15,2013-06-17 07:42:00,
2013-06-17 03:47:00,58.1,56.7,29.73,WSW,248,0.0,2.0,95,0.00,,,0.00,Wunderground v.1.15,2013-06-17 07:47:00,
2013-06-17 03:53:00,57.9,56.5,29.73,SW,236,0.0,1.0,95,0.00,,,0.00,Wunderground v.1.15,2013-06-17 07:53:00,
2013-06-17 03:59:00,57.9,56.5,29.73,SW,235,0.0,1.0,95,0.00,,,0.00,Wunderground v.1.15,2013-06-17 07:59:00,
2013-06-17 04:06:00,57.9,56.5,29.74,SW,222,0.0,2.0,95,0.00,,,0.00,Wunderground v.1.15,2013-06-17 08:06:00,
2013-06-17 04:12:00,58.0,56.6,29.74,ESE,115,0.0,1.0,95,0.00,,,0.00,Wunderground v.1.15,2013-06-17 08:12:00,
2013-06-17 04:18:00,58.2,56.5,29.74,WSW,248,1.0,2.0,94,0.00,,,0.00,Wunderground v.1.15,2013-06-17 08:18:00,
2013-06-17 04:24:00,58.2,56.5,29.74,WSW,240,1.0,1.0,94,0.00,,,0.00,Wunderground v.1.15,2013-06-17 08:24:00,
2013-06-17 04:29:00,58.2,56.5,29.75,SW,229,0.0,2.0,94,0.00,,,0.00,Wunderground v.1.15,2013-06-17 08:29:00,
2013-06-17 04:35:00,58.1,56.4,29.75,SW,229,0.0,1.0,94,0.00,,,0.00,Wunderground v.1.15,2013-06-17 08:35:00,
2013-06-17 04:40:00,58.1,56.4,29.75,WSW,238,0.0,0.0,94,0.00,,,0.00,Wunderground v.1.15,2013-06-17 08:40:00,
2013-06-17 04:45:00,58.0,56.3,29.75,SW,233,0.0,2.0,94,0.00,,,0.00,Wunderground v.1.15,2013-06-17 08:45:00,
2013-06-17 04:51:00,57.9,56.2,29.76,WSW,247,0.0,0.0,94,0.00,,,0.00,Wunderground v.1.15,2013-06-17 08:51:00,
2013-06-17 04:56:00,57.7,56.0,29.76,WSW,248,0.0,0.0,94,0.00,,,0.00,Wunderground v.1.15,2013-06-17 08:56:00,
2013-06-17 05:01:00,57.6,55.9,29.76,WSW,248,0.0,0.0,94,0.00,,,0.00,Wunderground v.1.15,2013-06-17 09:01:00,
2013-06-17 05:07:00,57.5,55.8,29.76,WSW,245,0.0,0.0,94,0.00,,,0.00,Wunderground v.1.15,2013-06-17 09:07:00,
2013-06-17 05:12:00,57.4,56.0,29.76,SW,228,0.0,0.0,95,0.00,,,0.00,Wunderground v.1.15,2013-06-17 09:12:00,
2013-06-17 05:18:00,57.4,55.7,29.76,SW,228,0.0,0.0,94,0.00,,,0.00,Wunderground v.1.15,2013-06-17 09:18:00,
2013-06-17 05:24:00,57.3,55.6,29.76,SW,228,0.0,0.0,94,0.00,,,0.00,Wunderground v.1.15,2013-06-17 09:24:00,
2013-06-17 05:29:00,57.2,55.5,29.76,SW,228,0.0,0.0,94,0.00,,,0.00,Wunderground v.1.15,2013-06-17 09:29:00,
2013-06-17 05:35:00,57.2,55.8,29.77,SW,228,0.0,0.0,95,0.00,,,0.00,Wunderground v.1.15,2013-06-17 09:35:00,
2013-06-17 05:40:00,57.1,55.7,29.77,SW,227,0.0,0.0,95,0.00,,,0.00,Wunderground v.1.15,2013-06-17 09:40:00,
2013-06-17 05:45:00,57.1,55.7,29.78,SW,228,0.0,0.0,95,0.00,,,0.00,Wunderground v.1.15,2013-06-17 09:45:00,
2013-06-17 05:50:00,57.1,55.7,29.78,SW,228,0.0,0.0,95,0.00,,,0.00,Wunderground v.1.15,2013-06-17 09:50:00,
2013-06-17 05:56:00,57.2,55.8,29.78,SW,228,0.0,0.0,95,0.00,,,0.00,Wunderground v.1.15,2013-06-17 09:56:00,
2013-06-17 06:01:00,57.4,56.0,29.78,SW,228,0.0,0.0,95,0.00,,,0.00,Wunderground v.1.15,2013-06-17 10:01:00,
2013-06-17 06:07:00,57.5,56.1,29.78,SW,228,0.0,0.0,95,0.00,,,0.00,Wunderground v.1.15,2013-06-17 10:07:00,
2013-06-17 06:13:00,57.7,56.3,29.78,SW,228,0.0,0.0,95,0.00,,,0.00,Wunderground v.1.15,2013-06-17 10:13:00,
2013-06-17 06:18:00,58.2,56.8,29.79,SW,229,0.0,0.0,95,0.00,,,0.00,Wunderground v.1.15,2013-06-17 10:18:00,
2013-06-17 06:24:00,58.9,57.2,29.79,WSW,243,0.0,0.0,94,0.00,,,0.00,Wunderground v.1.15,2013-06-17 10:24:00,
2013-06-17 06:29:00,59.6,57.6,29.79,WSW,243,0.0,0.0,93,0.00,,,0.00,Wunderground v.1.15,2013-06-17 10:29:00,
2013-06-17 06:35:00,60.4,57.8,29.79,SW,235,0.0,0.0,91,0.00,,,0.00,Wunderground v.1.15,2013-06-17 10:35:00,
2013-06-17 06:41:00,60.9,57.9,29.79,SW,235,0.0,0.0,90,0.00,,,0.00,Wunderground v.1.15,2013-06-17 10:41:00,
2013-06-17 06:47:00,61.2,57.9,29.79,WSW,256,0.0,0.0,89,0.00,,,0.00,Wunderground v.1.15,2013-06-17 10:47:00,
2013-06-17 06:52:00,61.5,58.2,29.79,SW,233,0.0,0.0,89,0.00,,,0.00,Wunderground v.1.15,2013-06-17 10:52:00,
2013-06-17 06:58:00,62.2,58.6,29.79,SW,228,0.0,1.0,88,0.00,,,0.00,Wunderground v.1.15,2013-06-17 10:58:00,
2013-06-17 07:04:00,62.6,58.7,29.79,WSW,245,0.0,0.0,87,0.00,,,0.00,Wunderground v.1.15,2013-06-17 11:04:00,
2013-06-17 07:09:00,63.2,58.9,29.79,SW,226,0.0,0.0,86,0.00,,,0.00,Wunderground v.1.15,2013-06-17 11:09:00,
2013-06-17 07:15:00,63.7,59.1,29.79,SW,214,0.0,1.0,85,0.00,,,0.00,Wunderground v.1.15,2013-06-17 11:15:00,
2013-06-17 07:21:00,64.1,59.2,29.79,ENE,59,0.0,0.0,84,0.00,,,0.00,Wunderground v.1.15,2013-06-17 11:21:00,
2013-06-17 07:26:00,64.7,59.4,29.79,SW,236,0.0,2.0,83,0.00,,,0.00,Wunderground v.1.15,2013-06-17 11:26:00,
2013-06-17 07:32:00,65.4,60.1,29.79,WSW,255,1.0,1.0,83,0.00,,,0.00,Wunderground v.1.15,2013-06-17 11:32:00,
2013-06-17 07:37:00,65.9,59.6,29.79,WSW,242,1.0,4.0,80,0.00,,,0.00,Wunderground v.1.15,2013-06-17 11:37:00,
2013-06-17 07:42:00,66.4,60.4,29.79,SSE,163,1.0,1.0,81,0.00,,,0.00,Wunderground v.1.15,2013-06-17 11:42:00,
2013-06-17 07:47:00,66.9,59.8,29.79,WSW,250,1.0,3.0,78,0.00,,,0.00,Wunderground v.1.15,2013-06-17 11:47:00,
2013-06-17 07:53:00,67.3,60.6,29.79,SSW,208,1.0,1.0,79,0.00,,,0.00,Wunderground v.1.15,2013-06-17 11:53:00,
2013-06-17 07:59:00,67.7,60.2,29.80,SW,235,1.0,4.0,77,0.00,,,0.00,Wunderground v.1.15,2013-06-17 11:59:00,
2013-06-17 08:05:00,68.2,60.0,29.80,SSW,212,1.0,3.0,75,0.00,,,0.00,Wunderground v.1.15,2013-06-17 12:05:00,
2013-06-17 08:11:00,68.7,60.5,29.80,South,172,1.0,2.0,75,0.00,,,0.00,Wunderground v.1.15,2013-06-17 12:11:00,
2013-06-17 08:17:00,69.0,60.4,29.80,SW,224,1.0,2.0,74,0.00,,,0.00,Wunderground v.1.15,2013-06-17 12:17:00,
2013-06-17 08:23:00,69.4,60.8,29.80,SW,224,1.0,1.0,74,0.00,,,0.00,Wunderground v.1.15,2013-06-17 12:23:00,
2013-06-17 08:28:00,69.8,60.8,29.80,WSW,243,1.0,5.0,73,0.00,,,0.00,Wunderground v.1.15,2013-06-17 12:28:00,
2013-06-17 08:33:00,70.1,59.9,29.80,West,269,2.0,4.0,70,0.00,,,0.00,Wunderground v.1.15,2013-06-17 12:33:00,
2013-06-17 08:39:00,70.6,60.7,29.80,SSW,211,2.0,4.0,71,0.00,,,0.00,Wunderground v.1.15,2013-06-17 12:39:00,
2013-06-17 08:45:00,71.1,60.4,29.80,SW,225,1.0,2.0,69,0.00,,,0.00,Wunderground v.1.15,2013-06-17 12:45:00,
2013-06-17 08:50:00,71.4,60.3,29.80,West,259,1.0,5.0,68,0.00,,,0.00,Wunderground v.1.15,2013-06-17 12:50:00,
2013-06-17 08:56:00,71.8,61.1,29.79,WSW,240,2.0,5.0,69,0.00,,,0.00,Wunderground v.1.15,2013-06-17 12:56:00,
2013-06-17 09:02:00,72.4,61.2,29.79,SSW,211,2.0,2.0,68,0.00,,,0.00,Wunderground v.1.15,2013-06-17 13:02:00,
2013-06-17 09:07:00,72.7,60.7,29.79,NW,310,2.0,6.0,66,0.00,,,0.00,Wunderground v.1.15,2013-06-17 13:07:00,
2013-06-17 09:12:00,72.7,60.7,29.79,WSW,242,2.0,2.0,66,0.00,,,0.00,Wunderground v.1.15,2013-06-17 13:12:00,
2013-06-17 09:18:00,73.2,61.2,29.79,SSW,205,2.0,4.0,66,0.00,,,0.00,Wunderground v.1.15,2013-06-17 13:18:00,
2013-06-17 09:23:00,73.4,60.9,29.79,SSW,193,2.0,4.0,65,0.00,,,0.00,Wunderground v.1.15,2013-06-17 13:23:00,
2013-06-17 09:28:00,73.3,59.9,29.78,WSW,257,3.0,4.0,63,0.00,,,0.00,Wunderground v.1.15,2013-06-17 13:28:00,
2013-06-17 09:33:00,73.7,61.2,29.78,SW,223,3.0,3.0,65,0.00,,,0.00,Wunderground v.1.15,2013-06-17 13:33:00,
2013-06-17 09:38:00,74.0,60.2,29.78,SW,225,2.0,6.0,62,0.00,,,0.00,Wunderground v.1.15,2013-06-17 13:38:00,
2013-06-17 09:44:00,74.3,60.0,29.78,WSW,240,3.0,5.0,61,0.00,,,0.00,Wunderground v.1.15,2013-06-17 13:44:00,
2013-06-17 09:49:00,74.7,60.4,29.78,WSW,257,2.0,5.0,61,0.00,,,0.00,Wunderground v.1.15,2013-06-17 13:49:00,
2013-06-17 09:55:00,74.9,59.6,29.78,SW,223,3.0,7.0,59,0.00,,,0.00,Wunderground v.1.15,2013-06-17 13:55:00,
2013-06-17 10:01:00,75.4,59.6,29.78,SW,231,2.0,3.0,58,0.00,,,0.00,Wunderground v.1.15,2013-06-17 14:01:00,
2013-06-17 10:07:00,75.7,59.4,29.78,NW,325,2.0,3.0,57,0.00,,,0.00,Wunderground v.1.15,2013-06-17 14:07:00,
2013-06-17 10:12:00,76.2,60.8,29.78,WSW,253,2.0,3.0,59,0.00,,,0.00,Wunderground v.1.15,2013-06-17 14:12:00,
2013-06-17 10:18:00,76.9,60.5,29.78,South,190,2.0,3.0,57,0.00,,,0.00,Wunderground v.1.15,2013-06-17 14:18:00,
2013-06-17 10:24:00,77.4,59.5,29.78,WSW,247,1.0,4.0,54,0.00,,,0.00,Wunderground v.1.15,2013-06-17 14:24:00,
2013-06-17 10:30:00,77.5,59.5,29.78,South,176,2.0,3.0,54,0.00,,,0.00,Wunderground v.1.15,2013-06-17 14:30:00,
2013-06-17 10:35:00,77.8,58.2,29.78,SW,231,2.0,8.0,51,0.00,,,0.00,Wunderground v.1.15,2013-06-17 14:35:00,
2013-06-17 10:40:00,78.0,59.5,29.77,SW,215,3.0,4.0,53,0.00,,,0.00,Wunderground v.1.15,2013-06-17 14:40:00,
2013-06-17 10:45:00,78.3,60.3,29.77,SSW,212,2.0,5.0,54,0.00,,,0.00,Wunderground v.1.15,2013-06-17 14:45:00,
2013-06-17 10:51:00,78.6,59.0,29.77,SSW,198,2.0,4.0,51,0.00,,,0.00,Wunderground v.1.15,2013-06-17 14:51:00,
2013-06-17 10:57:00,78.6,57.8,29.77,West,273,3.0,5.0,49,0.00,,,0.00,Wunderground v.1.15,2013-06-17 14:57:00,
2013-06-17 11:03:00,78.9,58.1,29.77,SW,229,3.0,5.0,49,0.00,,,0.00,Wunderground v.1.15,2013-06-17 15:03:00,
2013-06-17 11:08:00,79.0,57.6,29.77,SSW,208,3.0,7.0,48,0.00,,,0.00,Wunderground v.1.15,2013-06-17 15:08:00,
2013-06-17 11:14:00,79.3,59.6,29.77,ESE,107,2.0,3.0,51,0.00,,,0.00,Wunderground v.1.15,2013-06-17 15:14:00,
2013-06-17 11:20:00,79.0,57.0,29.77,SW,218,3.0,6.0,47,0.00,,,0.00,Wunderground v.1.15,2013-06-17 15:20:00,
2013-06-17 11:25:00,79.0,57.6,29.77,WNW,282,4.0,6.0,48,0.00,,,0.00,Wunderground v.1.15,2013-06-17 15:25:00,
2013-06-17 11:31:00,79.3,58.5,29.77,WSW,255,2.0,3.0,49,0.00,,,0.00,Wunderground v.1.15,2013-06-17 15:31:00,
2013-06-17 11:36:00,79.7,57.1,29.77,SW,225,2.0,3.0,46,0.00,,,0.00,Wunderground v.1.15,2013-06-17 15:36:00,
2013-06-17 11:42:00,79.6,55.8,29.77,West,264,3.0,5.0,44,0.00,,,0.00,Wunderground v.1.15,2013-06-17 15:42:00,
2013-06-17 11:48:00,80.1,58.6,29.77,SSW,193,3.0,5.0,48,0.00,,,0.00,Wunderground v.1.15,2013-06-17 15:48:00,
2013-06-17 11:53:00,80.7,59.2,29.76,NNE,12,2.0,3.0,48,0.00,,,0.00,Wunderground v.1.15,2013-06-17 15:53:00,
2013-06-17 11:59:00,80.8,55.6,29.77,SW,218,2.0,6.0,42,0.00,,,0.00,Wunderground v.1.15,2013-06-17 15:59:00,
2013-06-17 12:05:00,80.1,56.8,29.77,NNE,12,3.0,4.0,45,0.00,,,0.00,Wunderground v.1.15,2013-06-17 16:05:00,
2013-06-17 12:11:00,79.9,56.7,29.77,WSW,251,3.0,3.0,45,0.00,,,0.00,Wunderground v.1.15,2013-06-17 16:11:00,
2013-06-17 12:16:00,80.0,58.0,29.77,South,181,2.0,4.0,47,0.00,,,0.00,Wunderground v.1.15,2013-06-17 16:16:00,
2013-06-17 12:21:00,80.3,57.0,29.77,SW,231,2.0,8.0,45,0.00,,,0.00,Wunderground v.1.15,2013-06-17 16:21:00,
2013-06-17 12:27:00,80.4,57.1,29.77,South,188,2.0,8.0,45,0.00,,,0.00,Wunderground v.1.15,2013-06-17 16:27:00,
2013-06-17 12:32:00,80.6,58.5,29.77,WSW,255,3.0,8.0,47,0.00,,,0.00,Wunderground v.1.15,2013-06-17 16:32:00,
2013-06-17 12:39:00,80.7,58.0,29.76,NE,48,3.0,8.0,46,0.00,,,0.00,Wunderground v.1.15,2013-06-17 16:39:00,
2013-06-17 12:44:00,80.2,57.5,29.76,WSW,246,3.0,5.0,46,0.00,,,0.00,Wunderground v.1.15,2013-06-17 16:44:00,
2013-06-17 12:50:00,79.9,57.9,29.76,West,264,3.0,3.0,47,0.00,,,0.00,Wunderground v.1.15,2013-06-17 16:50:00,
2013-06-17 12:55:00,80.5,57.2,29.75,SW,234,3.0,4.0,45,0.00,,,0.00,Wunderground v.1.15,2013-06-17 16:55:00,
2013-06-17 13:02:00,81.6,56.9,29.75,WNW,290,2.0,3.0,43,0.00,,,0.00,Wunderground v.1.15,2013-06-17 17:02:00,
2013-06-17 13:07:00,81.4,57.4,29.75,SSE,160,3.0,7.0,44,0.00,,,0.00,Wunderground v.1.15,2013-06-17 17:07:00,
2013-06-17 13:12:00,81.5,56.8,29.75,WSW,248,3.0,3.0,43,0.00,,,0.00,Wunderground v.1.15,2013-06-17 17:12:00,
2013-06-17 13:18:00,82.0,57.3,29.75,SW,214,2.0,4.0,43,0.00,,,0.00,Wunderground v.1.15,2013-06-17 17:18:00,
2013-06-17 13:24:00,81.9,57.2,29.75,SW,221,3.0,10.0,43,0.00,,,0.00,Wunderground v.1.15,2013-06-17 17:24:00,
2013-06-17 13:29:00,82.3,58.2,29.75,SSE,158,3.0,10.0,44,0.00,,,0.00,Wunderground v.1.15,2013-06-17 17:29:00,
2013-06-17 13:35:00,82.9,57.5,29.75,SSW,205,2.0,5.0,42,0.00,,,0.00,Wunderground v.1.15,2013-06-17 17:35:00,
2013-06-17 13:41:00,82.5,57.1,29.75,WSW,257,3.0,3.0,42,0.00,,,0.00,Wunderground v.1.15,2013-06-17 17:41:00,
2013-06-17 13:47:00,82.6,59.1,29.75,SW,226,3.0,3.0,45,0.00,,,0.00,Wunderground v.1.15,2013-06-17 17:47:00,
2013-06-17 13:52:00,83.0,56.9,29.75,WSW,249,2.0,2.0,41,0.00,,,0.00,Wunderground v.1.15,2013-06-17 17:52:00,
2013-06-17 13:58:00,83.6,55.3,29.75,SSW,208,2.0,5.0,38,0.00,,,0.00,Wunderground v.1.15,2013-06-17 17:58:00,
2013-06-17 14:03:00,83.4,57.2,29.74,WNW,300,4.0,10.0,41,0.00,,,0.00,Wunderground v.1.15,2013-06-17 18:03:00,
2013-06-17 14:08:00,83.9,57.7,29.74,SW,216,3.0,10.0,41,0.00,,,0.00,Wunderground v.1.15,2013-06-17 18:08:00,
2013-06-17 14:13:00,84.1,56.5,29.74,SW,226,2.0,4.0,39,0.00,,,0.00,Wunderground v.1.15,2013-06-17 18:13:00,
2013-06-17 14:18:00,84.1,57.2,29.74,SSW,203,3.0,11.0,40,0.00,,,0.00,Wunderground v.1.15,2013-06-17 18:18:00,
2013-06-17 14:24:00,84.0,55.7,29.74,South,191,4.0,9.0,38,0.00,,,0.00,Wunderground v.1.15,2013-06-17 18:24:00,
2013-06-17 14:29:00,83.9,57.7,29.74,SE,131,3.0,9.0,41,0.00,,,0.00,Wunderground v.1.15,2013-06-17 18:29:00,
2013-06-17 14:35:00,83.9,57.7,29.74,WSW,249,3.0,9.0,41,0.00,,,0.00,Wunderground v.1.15,2013-06-17 18:35:00,
2013-06-17 14:41:00,83.7,56.1,29.74,WSW,246,4.0,5.0,39,0.00,,,0.00,Wunderground v.1.15,2013-06-17 18:41:00,
2013-06-17 14:46:00,83.6,56.0,29.74,WNW,284,3.0,5.0,39,0.00,,,0.00,Wunderground v.1.15,2013-06-17 18:46:00,
2013-06-17 14:51:00,83.8,56.2,29.74,WSW,238,3.0,3.0,39,0.00,,,0.00,Wunderground v.1.15,2013-06-17 18:51:00,
2013-06-17 14:57:00,83.8,56.2,29.74,West,265,2.0,4.0,39,0.00,,,0.00,Wunderground v.1.15,2013-06-17 18:57:00,
2013-06-17 15:02:00,83.0,54.8,29.73,WSW,240,2.0,8.0,38,0.00,,,0.00,Wunderground v.1.15,2013-06-17 19:02:00,
2013-06-17 15:08:00,82.5,55.0,29.73,SSW,207,3.0,8.0,39,0.00,,,0.00,Wunderground v.1.15,2013-06-17 19:08:00,
2013-06-17 15:13:00,82.3,54.9,29.73,SW,225,2.0,7.0,39,0.00,,,0.00,Wunderground v.1.15,2013-06-17 19:13:00,
2013-06-17 15:19:00,81.8,60.8,29.74,SSE,166,2.0,7.0,49,0.00,,,0.00,Wunderground v.1.15,2013-06-17 19:19:00,
2013-06-17 15:24:00,80.6,61.3,29.75,East,98,1.0,2.0,52,0.00,,,0.00,Wunderground v.1.15,2013-06-17 19:24:00,
2013-06-17 15:30:00,79.2,57.2,29.76,ENE,73,1.0,1.0,47,0.00,,,0.00,Wunderground v.1.15,2013-06-17 19:30:00,
2013-06-17 15:35:00,76.6,57.7,29.76,East,98,3.0,4.0,52,0.00,,,0.00,Wunderground v.1.15,2013-06-17 19:35:00,
2013-06-17 15:40:00,75.1,58.3,29.76,ENE,71,4.0,4.0,56,0.00,,,0.00,Wunderground v.1.15,2013-06-17 19:40:00,
2013-06-17 15:46:00,74.2,58.9,29.76,NE,46,3.0,5.0,59,0.00,,,0.00,Wunderground v.1.15,2013-06-17 19:46:00,
2013-06-17 15:52:00,73.3,59.5,29.77,North,354,2.0,2.0,62,0.00,,,0.00,Wunderground v.1.15,2013-06-17 19:52:00,
2013-06-17 15:58:00,72.0,59.6,29.78,NE,39,2.0,3.0,65,0.00,,,0.00,Wunderground v.1.15,2013-06-17 19:58:00,
2013-06-17 16:03:00,71.4,59.9,29.78,NNE,33,2.0,4.0,67,0.00,,,0.00,Wunderground v.1.15,2013-06-17 20:03:00,
2013-06-17 16:09:00,71.1,60.4,29.78,WNW,301,2.0,4.0,69,0.00,,,0.00,Wunderground v.1.15,2013-06-17 20:09:00,
2013-06-17 16:14:00,71.0,60.7,29.78,NNE,18,1.0,2.0,70,0.00,,,0.00,Wunderground v.1.15,2013-06-17 20:14:00,
2013-06-17 16:20:00,71.0,60.3,29.78,NNW,338,1.0,1.0,69,0.00,,,0.00,Wunderground v.1.15,2013-06-17 20:20:00,
2013-06-17 16:25:00,70.7,60.0,29.78,NNE,23,1.0,2.0,69,0.00,,,0.00,Wunderground v.1.15,2013-06-17 20:25:00,
2013-06-17 16:31:00,70.6,61.1,29.78,NNE,29,1.0,2.0,72,0.00,,,0.00,Wunderground v.1.15,2013-06-17 20:31:00,
2013-06-17 16:37:00,70.5,61.0,29.78,NE,49,1.0,2.0,72,0.00,,,0.00,Wunderground v.1.15,2013-06-17 20:37:00,
2013-06-17 16:43:00,70.4,60.9,29.78,NNE,12,1.0,3.0,72,0.00,,,0.00,Wunderground v.1.15,2013-06-17 20:43:00,
2013-06-17 16:48:00,70.3,61.2,29.78,NNE,19,1.0,3.0,73,0.00,,,0.00,Wunderground v.1.15,2013-06-17 20:48:00,
2013-06-17 16:53:00,70.1,61.0,29.78,NNE,13,1.0,2.0,73,0.00,,,0.00,Wunderground v.1.15,2013-06-17 20:53:00,
2013-06-17 16:59:00,70.2,61.1,29.78,NNE,13,1.0,2.0,73,0.00,,,0.00,Wunderground v.1.15,2013-06-17 20:59:00,
2013-06-17 17:04:00,70.4,60.5,29.79,SE,145,0.0,1.0,71,0.00,,,0.00,Wunderground v.1.15,2013-06-17 21:04:00,
2013-06-17 17:09:00,70.8,60.1,29.79,East,98,1.0,2.0,69,0.00,,,0.00,Wunderground v.1.15,2013-06-17 21:09:00,
2013-06-17 17:15:00,70.9,59.8,29.78,SW,229,1.0,2.0,68,0.00,,,0.00,Wunderground v.1.15,2013-06-17 21:15:00,
2013-06-17 17:20:00,70.5,59.4,29.79,NE,46,2.0,2.0,68,0.00,,,0.00,Wunderground v.1.15,2013-06-17 21:20:00,
2013-06-17 17:26:00,69.9,60.1,29.78,South,183,2.0,4.0,71,0.00,,,0.00,Wunderground v.1.15,2013-06-17 21:26:00,
2013-06-17 17:32:00,69.4,61.5,29.78,South,184,0.0,1.0,76,0.00,,,0.00,Wunderground v.1.15,2013-06-17 21:32:00,
2013-06-17 17:38:00,69.2,60.6,29.78,SSW,198,0.0,1.0,74,0.00,,,0.00,Wunderground v.1.15,2013-06-17 21:38:00,
2013-06-17 17:44:00,69.1,61.2,29.78,WSW,238,0.0,1.0,76,0.00,,,0.00,Wunderground v.1.15,2013-06-17 21:44:00,
2013-06-17 17:50:00,69.2,61.7,29.78,WSW,239,0.0,0.0,77,0.00,,,0.00,Wunderground v.1.15,2013-06-17 21:50:00,
2013-06-17 17:56:00,69.1,60.5,29.78,West,259,0.0,1.0,74,0.00,,,0.00,Wunderground v.1.15,2013-06-17 21:56:00,
2013-06-17 18:01:00,69.1,60.1,29.78,SW,231,0.0,1.0,73,0.00,,,0.00,Wunderground v.1.15,2013-06-17 22:01:00,
2013-06-17 18:07:00,69.3,60.3,29.78,WSW,239,0.0,1.0,73,0.00,,,0.00,Wunderground v.1.15,2013-06-17 22:07:00,
2013-06-17 18:12:00,69.5,60.5,29.78,SW,229,1.0,2.0,73,0.00,,,0.00,Wunderground v.1.15,2013-06-17 22:12:00,
2013-06-17 18:18:00,69.7,60.7,29.78,SW,233,0.0,2.0,73,0.00,,,0.00,Wunderground v.1.15,2013-06-17 22:18:00,
2013-06-17 18:24:00,69.9,60.8,29.78,WSW,238,0.0,2.0,73,0.00,,,0.00,Wunderground v.1.15,2013-06-17 22:24:00,
2013-06-17 18:29:00,70.2,60.4,29.79,SW,219,1.0,5.0,71,0.00,,,0.00,Wunderground v.1.15,2013-06-17 22:29:00,
2013-06-17 18:34:00,70.3,60.4,29.79,SW,231,2.0,2.0,71,0.00,,,0.00,Wunderground v.1.15,2013-06-17 22:34:00,
2013-06-17 18:40:00,70.9,60.6,29.79,SW,215,2.0,2.0,70,0.00,,,0.00,Wunderground v.1.15,2013-06-17 22:40:00,
2013-06-17 18:45:00,71.8,60.7,29.79,SSW,208,1.0,2.0,68,0.00,,,0.00,Wunderground v.1.15,2013-06-17 22:45:00,
2013-06-17 18:51:00,72.3,60.7,29.79,SW,219,1.0,2.0,67,0.00,,,0.00,Wunderground v.1.15,2013-06-17 22:51:00,
2013-06-17 18:57:00,72.1,60.5,29.79,SW,229,0.0,2.0,67,0.00,,,0.00,Wunderground v.1.15,2013-06-17 22:57:00,
2013-06-17 19:03:00,71.6,60.9,29.79,WSW,238,0.0,1.0,69,0.00,,,0.00,Wunderground v.1.15,2013-06-17 23:03:00,
2013-06-17 19:09:00,71.0,60.3,29.79,SW,231,0.0,1.0,69,0.00,,,0.00,Wunderground v.1.15,2013-06-17 23:09:00,
2013-06-17 19:15:00,70.5,59.8,29.79,WSW,245,0.0,0.0,69,0.00,,,0.00,Wunderground v.1.15,2013-06-17 23:15:00,
2013-06-17 19:20:00,70.1,60.3,29.79,WSW,250,0.0,0.0,71,0.00,,,0.00,Wunderground v.1.15,2013-06-17 23:20:00,
2013-06-17 19:25:00,69.6,60.6,29.79,NNE,21,0.0,2.0,73,0.00,,,0.00,Wunderground v.1.15,2013-06-17 23:25:00,
2013-06-17 19:31:00,69.3,60.3,29.79,NNE,21,0.0,0.0,73,0.00,,,0.00,Wunderground v.1.15,2013-06-17 23:31:00,
2013-06-17 19:37:00,69.1,60.8,29.80,NNE,22,0.0,0.0,75,0.00,,,0.00,Wunderground v.1.15,2013-06-17 23:37:00,
2013-06-17 19:42:00,68.8,60.9,29.80,NNE,21,0.0,0.0,76,0.00,,,0.00,Wunderground v.1.15,2013-06-17 23:42:00,
2013-06-17 19:47:00,68.4,60.9,29.80,NNE,22,0.0,0.0,77,0.00,,,0.00,Wunderground v.1.15,2013-06-17 23:47:00,
2013-06-17 19:52:00,67.9,61.1,29.80,NNE,22,0.0,0.0,79,0.00,,,0.00,Wunderground v.1.15,2013-06-17 23:52:00,
2013-06-17 19:58:00,67.3,60.9,29.81,NNE,21,0.0,0.0,80,0.00,,,0.00,Wunderground v.1.15,2013-06-17 23:58:00,
2013-06-17 20:03:00,67.3,61.3,29.81,NNE,21,0.0,0.0,81,0.00,,,0.00,Wunderground v.1.15,2013-06-18 00:03:00,
2013-06-17 20:09:00,67.3,60.9,29.82,NNE,21,0.0,0.0,80,0.00,,,0.00,Wunderground v.1.15,2013-06-18 00:09:00,
2013-06-17 20:14:00,67.4,60.3,29.82,SW,231,0.0,1.0,78,0.00,,,0.00,Wunderground v.1.15,2013-06-18 00:14:00,
2013-06-17 20:19:00,67.6,60.1,29.82,WSW,258,0.0,1.0,77,0.00,,,0.00,Wunderground v.1.15,2013-06-18 00:19:00,
2013-06-17 20:25:00,67.6,60.1,29.82,WSW,258,0.0,0.0,77,0.00,,,0.00,Wunderground v.1.15,2013-06-18 00:25:00,
2013-06-17 20:31:00,67.4,59.9,29.83,WSW,258,0.0,0.0,77,0.00,,,0.00,Wunderground v.1.15,2013-06-18 00:31:00,
2013-06-17 20:37:00,67.1,60.0,29.83,WSW,258,0.0,0.0,78,0.00,,,0.00,Wunderground v.1.15,2013-06-18 00:37:00,
2013-06-17 20:42:00,66.6,59.9,29.83,West,259,0.0,0.0,79,0.00,,,0.00,Wunderground v.1.15,2013-06-18 00:42:00,
2013-06-17 20:48:00,66.0,60.0,29.83,WSW,258,0.0,0.0,81,0.00,,,0.00,Wunderground v.1.15,2013-06-18 00:48:00,
2013-06-17 20:54:00,65.6,60.3,29.83,West,259,0.0,0.0,83,0.00,,,0.00,Wunderground v.1.15,2013-06-18 00:54:00,
2013-06-17 21:00:00,65.4,60.1,29.83,WSW,258,0.0,0.0,83,0.00,,,0.00,Wunderground v.1.15,2013-06-18 01:00:00,
2013-06-17 21:06:00,65.2,59.9,29.83,West,259,0.0,0.0,83,0.00,,,0.00,Wunderground v.1.15,2013-06-18 01:06:00,
2013-06-17 21:11:00,65.1,60.1,29.83,WSW,258,0.0,0.0,84,0.00,,,0.00,Wunderground v.1.15,2013-06-18 01:11:00,
2013-06-17 21:16:00,65.0,60.4,29.84,West,259,0.0,0.0,85,0.00,,,0.00,Wunderground v.1.15,2013-06-18 01:16:00,
2013-06-17 21:21:00,64.8,60.2,29.84,West,259,0.0,0.0,85,0.00,,,0.00,Wunderground v.1.15,2013-06-18 01:21:00,
2013-06-17 21:27:00,64.6,60.3,29.84,WSW,258,0.0,0.0,86,0.00,,,0.00,Wunderground v.1.15,2013-06-18 01:27:00,
2013-06-17 21:33:00,64.4,60.4,29.85,West,259,0.0,0.0,87,0.00,,,0.00,Wunderground v.1.15,2013-06-18 01:33:00,
2013-06-17 21:39:00,64.0,60.1,29.85,West,259,0.0,0.0,87,0.00,,,0.00,Wunderground v.1.15,2013-06-18 01:39:00,
2013-06-17 21:45:00,63.8,60.2,29.85,West,259,0.0,0.0,88,0.00,,,0.00,Wunderground v.1.15,2013-06-18 01:45:00,
2013-06-17 21:51:00,63.5,60.2,29.85,West,259,0.0,0.0,89,0.00,,,0.00,Wunderground v.1.15,2013-06-18 01:51:00,
2013-06-17 21:57:00,63.4,60.1,29.85,West,259,0.0,0.0,89,0.00,,,0.00,Wunderground v.1.15,2013-06-18 01:57:00,
2013-06-17 22:03:00,63.3,60.3,29.85,West,259,0.0,0.0,90,0.00,,,0.00,Wunderground v.1.15,2013-06-18 02:03:00,
2013-06-17 22:08:00,63.3,60.3,29.85,West,259,0.0,0.0,90,0.00,,,0.00,Wunderground v.1.15,2013-06-18 02:08:00,
2013-06-17 22:14:00,63.2,60.2,29.85,West,259,0.0,0.0,90,0.00,,,0.00,Wunderground v.1.15,2013-06-18 02:14:00,
2013-06-17 22:20:00,63.2,60.5,29.85,West,259,0.0,0.0,91,0.00,,,0.00,Wunderground v.1.15,2013-06-18 02:20:00,
2013-06-17 22:26:00,63.0,60.3,29.85,West,259,0.0,0.0,91,0.00,,,0.00,Wunderground v.1.15,2013-06-18 02:26:00,
2013-06-17 22:31:00,63.0,60.3,29.84,West,259,0.0,0.0,91,0.00,,,0.00,Wunderground v.1.15,2013-06-18 02:31:00,
2013-06-17 22:36:00,63.0,60.3,29.84,West,259,0.0,0.0,91,0.00,,,0.00,Wunderground v.1.15,2013-06-18 02:36:00,
2013-06-17 22:41:00,62.9,60.2,29.85,West,259,0.0,0.0,91,0.00,,,0.00,Wunderground v.1.15,2013-06-18 02:41:00,
2013-06-17 22:46:00,62.8,60.1,29.84,West,259,0.0,0.0,91,0.00,,,0.00,Wunderground v.1.15,2013-06-18 02:46:00,
2013-06-17 22:52:00,62.6,59.9,29.84,WSW,258,0.0,0.0,91,0.00,,,0.00,Wunderground v.1.15,2013-06-18 02:52:00,
2013-06-17 22:57:00,62.3,59.9,29.84,WSW,258,0.0,0.0,92,0.00,,,0.00,Wunderground v.1.15,2013-06-18 02:57:00,
2013-06-17 23:03:00,62.0,59.6,29.84,West,259,0.0,0.0,92,0.00,,,0.00,Wunderground v.1.15,2013-06-18 03:03:00,
2013-06-17 23:09:00,61.8,59.5,29.84,West,259,0.0,0.0,92,0.00,,,0.00,Wunderground v.1.15,2013-06-18 03:09:00,
2013-06-17 23:16:00,61.6,59.6,29.84,West,259,0.0,0.0,93,0.00,,,0.00,Wunderground v.1.15,2013-06-18 03:16:00,
2013-06-17 23:21:00,61.5,59.5,29.84,WSW,258,0.0,0.0,93,0.00,,,0.00,Wunderground v.1.15,2013-06-18 03:21:00,
2013-06-17 23:26:00,61.4,59.7,29.84,West,259,0.0,0.0,94,0.00,,,0.00,Wunderground v.1.15,2013-06-18 03:26:00,
2013-06-17 23:32:00,61.4,59.7,29.84,West,259,0.0,0.0,94,0.00,,,0.00,Wunderground v.1.15,2013-06-18 03:32:00,
2013-06-17 23:37:00,61.3,59.6,29.84,WSW,258,0.0,0.0,94,0.00,,,0.00,Wunderground v.1.15,2013-06-18 03:37:00,
2013-06-17 23:42:00,61.3,59.6,29.84,West,259,0.0,0.0,94,0.00,,,0.00,Wunderground v.1.15,2013-06-18 03:42:00,
2013-06-17 23:48:00,61.2,59.2,29.84,West,259,0.0,0.0,93,0.00,,,0.00,Wunderground v.1.15,2013-06-18 03:48:00,
2013-06-17 23:54:00,61.1,59.1,29.84,West,259,0.0,0.0,93,0.00,,,0.00,Wunderground v.1.15,2013-06-18 03:54:00,